Elk Bend, Idaho
Current Conditions -  °F | °C
As of 5:35 AM on Thursday 29 Jan 2015 (Local Time) from KSMN Reporting Station
Overcast Overcast  
Wind Chill: 21°   Ceiling: 200
Heat Index: 21°   Visibility: 0.25mi
Dew Point: 19°   Wind: 0mph
Humidity: 93%   Direction: NA
Pressure: 30.49"   Gusts: NA
Location:  45.092°N, 113.703°W
Report Text: KSMN 291235Z AUTO 00000KT 1/4SM OVC002 M06/M07 A3049 RMK AO1
Loading
Personal Weather Stations






























Interactive Weather Map New forecast layout! Learn more

10-Day Weather Forecast

Advertisements
Track Severe Weather on mobile